Strona główna
METAR-TAF:

METAR-TAF

Lotnisko :

Port lotniczy Szawle

Szawle, Litwa

Szerokość geograficzna: 55-53-38N, Długość geograficzna: 023-23-42E, wysokość: 135 m

Aktualna obserwacja pogody

Raport powstał 31 minut temu, godzina 23:20 UTC
Wiatr 3 kt od północny wschód
Temperatura 12°C
Wilgotność 71%
Ciśnienie 1019 hPa
Widzialność 10 km lub więcej

METAR: EYSA 172320Z AUTO 04003KT 9999NDV NSC 12/07 Q1019

czas: 02:51 (23:51 UTC)

Prognoza

Raport powstał 50 minut temu, godzina 23:01 UTC
Prognoza ważna od 18 godzina 00 UTC do 18 godzina 09 UTC
Wiatr 3 kt z kierunków zmiennych
Widzialność: 9000 m

TAF: EYSA 172301Z 1800/1809 VRB03KT 9000 NSC

Obserwacja i prognoza pogody dla ponad 4000 lotnisk (raport METAR i TAF).

Dostępne stacje oznaczono żółtymi i czerwonymi punktami na mapie.

Najedź kursorem aby zobaczyć nazwę stacji.

Kliknij aby zobaczyć obserwacje i prognozy pogody.

Aby zmienić mapę: kliknij na zielony przycisk z czarnym krzyżykiem, aby powiększyć; na zielony przycisk z myślnikiem, aby pomniejszyć; na zielone strzałki, aby przejść do map sąsiednich.


METAR-TAF: